Главная страница
METAR-TAF:

METAR-TAF

Аэропорты :

Закаталы, Азербайджан

Парзиван

широта: 41-33-44N, долгота: 46-40-02E, высота над уровнем моря: 330 м

Текущие метеонаблюдения

Эта сводка был подготовлена 47 минут назад, в 17:00 UTC
Ветер 9 Узел от восточно-северо-восточный
Температура 8°C
Влажность 53%
Давление 1020 hPa
Видимость 10 км и более
небольшая облачность на высоте 10000 фута

METAR: UBBY 281700Z 07009KT 9999 FEW100 08/M01 Q1020 R33/////// NOSIG RMK MT OP

Время: 21:47 (17:47 UTC)

Прогноз

Эта сводка был подготовлена 47 минут назад, в 17:00 UTC
Прогноз действительный с 28-го 18 UTC до 29-го 03 UTC
Ветер 4 Узел переменных направлений
Видимость 10 км и более
небольшая облачность на высоте 4000 фута
Рассеянная облачность на высоте 7000 фута

TAF: UBBY 281700Z 2818/2903 VRB04KT 9999 FEW040 BKN070

Метеонаблюдения и прогнозы для более 4000 аэропортов (сводки METAR и TAF).

Имеющиеся станции представлены на карте желтыми и красными точками.

Чтобы увидеть название станции, наведите на нее мышь.

Затем щелкните, чтобы увидеть метеонаблюдения и метеопрогнозы.

Управление картой: чтобы увеличить масштаб, щелкните зеленые кнопки с черным крестиком; чтобы уменьшить масштаб, щелкните зеленую кнопку с тире; для просмотра соседних карт щелкайте зеленые стрелки.


METAR-TAF: